sensor_id;sensor_type;location;lat;lon;timestamp;temperature;humidity
12223;DHT22;6174;49.058;8.524;2024-01-16T06:01:23;-0.40;99.90
12223;DHT22;6174;49.058;8.524;2024-01-16T06:03:50;-0.50;99.90
12223;DHT22;6174;49.058;8.524;2024-01-16T06:06:17;0.00;99.90
12223;DHT22;6174;49.058;8.524;2024-01-16T06:08:44;-0.50;99.90
12223;DHT22;6174;49.058;8.524;2024-01-16T06:11:11;-0.60;99.90
12223;DHT22;6174;49.058;8.524;2024-01-16T06:13:38;-0.60;99.90
12223;DHT22;6174;49.058;8.524;2024-01-16T06:16:06;-0.60;99.90
12223;DHT22;6174;49.058;8.524;2024-01-16T06:18:34;-0.70;99.90
12223;DHT22;6174;49.058;8.524;2024-01-16T06:21:01;-0.80;99.90
12223;DHT22;6174;49.058;8.524;2024-01-16T06:23:28;-0.70;99.90
12223;DHT22;6174;49.058;8.524;2024-01-16T06:25:55;-0.60;99.90
12223;DHT22;6174;49.058;8.524;2024-01-16T06:28:22;-0.60;99.90
12223;DHT22;6174;49.058;8.524;2024-01-16T06:30:49;-0.50;99.90
12223;DHT22;6174;49.058;8.524;2024-01-16T06:33:15;-0.40;99.90
12223;DHT22;6174;49.058;8.524;2024-01-16T06:35:43;-0.30;99.90
12223;DHT22;6174;49.058;8.524;2024-01-16T06:38:10;-0.30;99.90
12223;DHT22;6174;49.058;8.524;2024-01-16T06:40:37;-0.40;99.90
12223;DHT22;6174;49.058;8.524;2024-01-16T06:43:04;-0.40;99.90
12223;DHT22;6174;49.058;8.524;2024-01-16T06:45:31;-0.50;99.90
12223;DHT22;6174;49.058;8.524;2024-01-16T06:47:58;-0.50;99.90
12223;DHT22;6174;49.058;8.524;2024-01-16T06:50:25;-0.50;99.90
12223;DHT22;6174;49.058;8.524;2024-01-16T06:52:53;-0.50;99.90
12223;DHT22;6174;49.058;8.524;2024-01-16T06:55:20;-0.40;99.90
12223;DHT22;6174;49.058;8.524;2024-01-16T06:57:46;-0.40;99.90
12223;DHT22;6174;49.058;8.524;2024-01-16T07:00:14;-0.30;99.90
12223;DHT22;6174;49.058;8.524;2024-01-16T07:02:41;-0.30;99.90
12223;DHT22;6174;49.058;8.524;2024-01-16T07:05:09;-0.40;99.90
12223;DHT22;6174;49.058;8.524;2024-01-16T07:07:36;-0.40;99.90
12223;DHT22;6174;49.058;8.524;2024-01-16T07:10:05;-0.40;99.90
12223;DHT22;6174;49.058;8.524;2024-01-16T07:12:33;-0.30;99.90
12223;DHT22;6174;49.058;8.524;2024-01-16T07:15:00;-0.40;99.90
12223;DHT22;6174;49.058;8.524;2024-01-16T07:17:27;-0.40;99.90
12223;DHT22;6174;49.058;8.524;2024-01-16T07:19:54;-0.40;99.90
12223;DHT22;6174;49.058;8.524;2024-01-16T07:22:20;-0.60;99.90
12223;DHT22;6174;49.058;8.524;2024-01-16T07:24:47;-0.60;99.90
12223;DHT22;6174;49.058;8.524;2024-01-16T07:27:15;-0.50;99.90
12223;DHT22;6174;49.058;8.524;2024-01-16T07:29:42;-0.50;99.90
12223;DHT22;6174;49.058;8.524;2024-01-16T07:32:09;-0.60;99.90
12223;DHT22;6174;49.058;8.524;2024-01-16T07:34:36;-0.60;99.90
12223;DHT22;6174;49.058;8.524;2024-01-16T07:37:03;-0.50;99.90
12223;DHT22;6174;49.058;8.524;2024-01-16T07:39:30;-0.40;99.90
12223;DHT22;6174;49.058;8.524;2024-01-16T07:41:56;-0.20;99.90
12223;DHT22;6174;49.058;8.524;2024-01-16T07:44:24;-0.10;99.90
12223;DHT22;6174;49.058;8.524;2024-01-16T07:46:50;-0.20;99.90
12223;DHT22;6174;49.058;8.524;2024-01-16T07:49:17;-0.20;99.90
12223;DHT22;6174;49.058;8.524;2024-01-16T07:51:44;-0.30;99.90
12223;DHT22;6174;49.058;8.524;2024-01-16T07:54:11;-0.20;99.90
12223;DHT22;6174;49.058;8.524;2024-01-16T07:56:38;-0.20;99.90
12223;DHT22;6174;49.058;8.524;2024-01-16T07:59:05;-0.30;99.90
12223;DHT22;6174;49.058;8.524;2024-01-16T08:01:33;-0.10;99.90
12223;DHT22;6174;49.058;8.524;2024-01-16T08:04:00;0.10;99.90
12223;DHT22;6174;49.058;8.524;2024-01-16T08:06:27;0.20;99.90
12223;DHT22;6174;49.058;8.524;2024-01-16T08:08:54;0.30;99.90
12223;DHT22;6174;49.058;8.524;2024-01-16T08:11:20;0.40;99.90
12223;DHT22;6174;49.058;8.524;2024-01-16T08:13:47;0.40;99.90
12223;DHT22;6174;49.058;8.524;2024-01-16T08:16:14;0.40;99.90
12223;DHT22;6174;49.058;8.524;2024-01-16T08:18:42;0.40;99.90
12223;DHT22;6174;49.058;8.524;2024-01-16T08:21:09;0.30;99.90
12223;DHT22;6174;49.058;8.524;2024-01-16T08:23:37;0.30;99.90
12223;DHT22;6174;49.058;8.524;2024-01-16T08:26:04;0.40;99.90
12223;DHT22;6174;49.058;8.524;2024-01-16T08:28:31;0.40;99.90
12223;DHT22;6174;49.058;8.524;2024-01-16T08:30:58;0.40;99.90
12223;DHT22;6174;49.058;8.524;2024-01-16T08:33:25;0.40;99.90
12223;DHT22;6174;49.058;8.524;2024-01-16T08:35:53;0.40;99.90
12223;DHT22;6174;49.058;8.524;2024-01-16T08:38:20;0.40;99.90
12223;DHT22;6174;49.058;8.524;2024-01-16T08:40:46;0.50;99.90
12223;DHT22;6174;49.058;8.524;2024-01-16T08:43:14;0.60;99.90
12223;DHT22;6174;49.058;8.524;2024-01-16T08:45:40;0.60;99.90
12223;DHT22;6174;49.058;8.524;2024-01-16T08:48:07;0.70;99.90
12223;DHT22;6174;49.058;8.524;2024-01-16T08:50:34;0.80;99.90
12223;DHT22;6174;49.058;8.524;2024-01-16T08:53:03;0.80;99.90
12223;DHT22;6174;49.058;8.524;2024-01-16T08:55:29;0.80;99.90
12223;DHT22;6174;49.058;8.524;2024-01-16T08:57:56;0.80;99.90
12223;DHT22;6174;49.058;8.524;2024-01-16T09:00:23;0.90;99.90
12223;DHT22;6174;49.058;8.524;2024-01-16T09:02:49;1.00;99.90
12223;DHT22;6174;49.058;8.524;2024-01-16T09:05:16;1.00;99.90
12223;DHT22;6174;49.058;8.524;2024-01-16T09:07:43;1.00;99.90
12223;DHT22;6174;49.058;8.524;2024-01-16T09:10:11;1.00;99.90
12223;DHT22;6174;49.058;8.524;2024-01-16T09:12:38;1.00;99.90
12223;DHT22;6174;49.058;8.524;2024-01-16T09:15:06;1.00;99.90
12223;DHT22;6174;49.058;8.524;2024-01-16T09:17:33;0.90;99.90
12223;DHT22;6174;49.058;8.524;2024-01-16T09:20:00;1.00;99.90
12223;DHT22;6174;49.058;8.524;2024-01-16T09:22:27;1.00;99.90
12223;DHT22;6174;49.058;8.524;2024-01-16T09:24:53;1.10;99.90
12223;DHT22;6174;49.058;8.524;2024-01-16T09:27:21;1.10;99.90
12223;DHT22;6174;49.058;8.524;2024-01-16T09:29:48;1.20;99.90
12223;DHT22;6174;49.058;8.524;2024-01-16T09:32:15;1.30;99.90
12223;DHT22;6174;49.058;8.524;2024-01-16T09:34:42;1.40;99.90
12223;DHT22;6174;49.058;8.524;2024-01-16T09:37:09;1.30;99.90
12223;DHT22;6174;49.058;8.524;2024-01-16T09:39:35;1.40;99.90
12223;DHT22;6174;49.058;8.524;2024-01-16T09:42:03;1.50;99.90
12223;DHT22;6174;49.058;8.524;2024-01-16T09:44:32;1.50;99.90
12223;DHT22;6174;49.058;8.524;2024-01-16T09:47:01;1.60;99.90
12223;DHT22;6174;49.058;8.524;2024-01-16T09:49:29;1.60;99.90
12223;DHT22;6174;49.058;8.524;2024-01-16T09:51:56;1.50;99.90
12223;DHT22;6174;49.058;8.524;2024-01-16T09:54:24;1.60;99.90
12223;DHT22;6174;49.058;8.524;2024-01-16T09:56:53;1.70;99.90
12223;DHT22;6174;49.058;8.524;2024-01-16T09:59:24;1.70;99.90
12223;DHT22;6174;49.058;8.524;2024-01-16T10:01:54;1.70;99.90
12223;DHT22;6174;49.058;8.524;2024-01-16T10:04:22;1.60;99.90
12223;DHT22;6174;49.058;8.524;2024-01-16T10:06:50;1.60;99.90
12223;DHT22;6174;49.058;8.524;2024-01-16T10:09:18;1.60;99.90
12223;DHT22;6174;49.058;8.524;2024-01-16T10:11:45;1.70;99.90
12223;DHT22;6174;49.058;8.524;2024-01-16T10:14:12;1.70;99.90
12223;DHT22;6174;49.058;8.524;2024-01-16T10:17:02;1.80;99.90
12223;DHT22;6174;49.058;8.524;2024-01-16T10:19:31;1.80;99.90
12223;DHT22;6174;49.058;8.524;2024-01-16T10:22:01;2.00;99.90
12223;DHT22;6174;49.058;8.524;2024-01-16T10:24:28;2.00;99.90
12223;DHT22;6174;49.058;8.524;2024-01-16T10:26:58;2.10;99.90
12223;DHT22;6174;49.058;8.524;2024-01-16T10:29:28;2.20;99.90
12223;DHT22;6174;49.058;8.524;2024-01-16T10:31:54;2.30;99.90
12223;DHT22;6174;49.058;8.524;2024-01-16T10:34:23;2.40;99.90
12223;DHT22;6174;49.058;8.524;2024-01-16T10:36:51;2.40;99.90
12223;DHT22;6174;49.058;8.524;2024-01-16T10:39:18;2.50;99.90
12223;DHT22;6174;49.058;8.524;2024-01-16T10:41:54;2.50;99.90
12223;DHT22;6174;49.058;8.524;2024-01-16T10:44:21;2.60;99.90
12223;DHT22;6174;49.058;8.524;2024-01-16T10:46:48;2.60;99.90
12223;DHT22;6174;49.058;8.524;2024-01-16T10:49:15;2.70;99.90
12223;DHT22;6174;49.058;8.524;2024-01-16T10:51:43;2.70;99.90
12223;DHT22;6174;49.058;8.524;2024-01-16T10:54:13;2.80;99.90
12223;DHT22;6174;49.058;8.524;2024-01-16T10:56:44;2.90;99.90
12223;DHT22;6174;49.058;8.524;2024-01-16T10:59:17;2.90;99.90
12223;DHT22;6174;49.058;8.524;2024-01-16T11:01:48;2.90;99.90
12223;DHT22;6174;49.058;8.524;2024-01-16T11:04:16;2.90;99.90
12223;DHT22;6174;49.058;8.524;2024-01-16T11:06:44;3.00;99.90
12223;DHT22;6174;49.058;8.524;2024-01-16T11:09:12;3.00;99.90
12223;DHT22;6174;49.058;8.524;2024-01-16T11:11:40;3.10;99.70
12223;DHT22;6174;49.058;8.524;2024-01-16T11:14:08;3.10;99.50
12223;DHT22;6174;49.058;8.524;2024-01-16T11:16:37;3.10;99.20
12223;DHT22;6174;49.058;8.524;2024-01-16T11:19:07;3.20;99.10
12223;DHT22;6174;49.058;8.524;2024-01-16T11:21:35;3.20;99.10
12223;DHT22;6174;49.058;8.524;2024-01-16T11:24:04;3.30;99.00
12223;DHT22;6174;49.058;8.524;2024-01-16T11:26:32;3.40;99.10
12223;DHT22;6174;49.058;8.524;2024-01-16T11:29:36;3.60;98.80
12223;DHT22;6174;49.058;8.524;2024-01-16T11:32:03;3.60;98.30
12223;DHT22;6174;49.058;8.524;2024-01-16T11:34:53;3.50;98.00
12223;DHT22;6174;49.058;8.524;2024-01-16T11:37:26;3.60;98.20
12223;DHT22;6174;49.058;8.524;2024-01-16T11:40:23;3.60;98.20
12223;DHT22;6174;49.058;8.524;2024-01-16T11:42:52;3.70;98.20
12223;DHT22;6174;49.058;8.524;2024-01-16T11:45:48;3.70;98.10
12223;DHT22;6174;49.058;8.524;2024-01-16T11:48:16;3.80;98.20
12223;DHT22;6174;49.058;8.524;2024-01-16T11:50:43;3.90;97.40
12223;DHT22;6174;49.058;8.524;2024-01-16T11:53:10;3.90;96.90
12223;DHT22;6174;49.058;8.524;2024-01-16T11:55:51;3.90;97.20
12223;DHT22;6174;49.058;8.524;2024-01-16T11:58:39;3.70;97.40
12223;DHT22;6174;49.058;8.524;2024-01-16T12:01:11;3.90;97.70
12223;DHT22;6174;49.058;8.524;2024-01-16T12:03:38;4.10;96.70
12223;DHT22;6174;49.058;8.524;2024-01-16T12:06:05;4.10;96.30
12223;DHT22;6174;49.058;8.524;2024-01-16T12:08:34;4.10;95.90
12223;DHT22;6174;49.058;8.524;2024-01-16T12:11:04;4.20;95.60
12223;DHT22;6174;49.058;8.524;2024-01-16T12:13:32;4.30;95.70
12223;DHT22;6174;49.058;8.524;2024-01-16T12:16:02;4.40;95.70
12223;DHT22;6174;49.058;8.524;2024-01-16T12:18:30;4.40;96.10
12223;DHT22;6174;49.058;8.524;2024-01-16T12:20:56;4.40;95.50
12223;DHT22;6174;49.058;8.524;2024-01-16T12:23:24;4.50;95.60
12223;DHT22;6174;49.058;8.524;2024-01-16T12:25:52;4.60;94.80
12223;DHT22;6174;49.058;8.524;2024-01-16T12:28:21;4.60;94.50
12223;DHT22;6174;49.058;8.524;2024-01-16T12:30:51;4.60;94.10
12223;DHT22;6174;49.058;8.524;2024-01-16T12:33:22;4.70;93.90
12223;DHT22;6174;49.058;8.524;2024-01-16T12:35:48;4.60;93.60
12223;DHT22;6174;49.058;8.524;2024-01-16T12:38:16;4.60;93.30
12223;DHT22;6174;49.058;8.524;2024-01-16T12:40:47;4.60;93.40
12223;DHT22;6174;49.058;8.524;2024-01-16T12:43:15;4.60;93.80
12223;DHT22;6174;49.058;8.524;2024-01-16T12:45:44;4.70;93.40
12223;DHT22;6174;49.058;8.524;2024-01-16T12:48:11;4.70;93.30
12223;DHT22;6174;49.058;8.524;2024-01-16T12:50:38;4.60;93.10
12223;DHT22;6174;49.058;8.524;2024-01-16T12:53:06;4.60;92.90
12223;DHT22;6174;49.058;8.524;2024-01-16T12:55:34;4.60;93.60
12223;DHT22;6174;49.058;8.524;2024-01-16T12:58:17;4.70;93.50
12223;DHT22;6174;49.058;8.524;2024-01-16T13:00:46;4.70;93.20
12223;DHT22;6174;49.058;8.524;2024-01-16T13:03:16;4.70;92.70
12223;DHT22;6174;49.058;8.524;2024-01-16T13:05:44;4.70;92.20
12223;DHT22;6174;49.058;8.524;2024-01-16T13:08:17;4.70;92.20
12223;DHT22;6174;49.058;8.524;2024-01-16T13:10:44;4.70;92.30
12223;DHT22;6174;49.058;8.524;2024-01-16T13:13:12;4.80;92.40
12223;DHT22;6174;49.058;8.524;2024-01-16T13:15:39;4.80;92.20
12223;DHT22;6174;49.058;8.524;2024-01-16T13:18:17;4.90;92.20
12223;DHT22;6174;49.058;8.524;2024-01-16T13:20:44;5.00;92.00
12223;DHT22;6174;49.058;8.524;2024-01-16T13:23:12;5.10;91.90
12223;DHT22;6174;49.058;8.524;2024-01-16T13:25:42;5.20;91.10
12223;DHT22;6174;49.058;8.524;2024-01-16T13:28:09;5.30;90.20
12223;DHT22;6174;49.058;8.524;2024-01-16T13:30:35;5.20;90.10
12223;DHT22;6174;49.058;8.524;2024-01-16T13:33:03;5.30;90.40
12223;DHT22;6174;49.058;8.524;2024-01-16T13:35:31;5.40;90.30
12223;DHT22;6174;49.058;8.524;2024-01-16T13:37:58;5.40;89.30
12223;DHT22;6174;49.058;8.524;2024-01-16T13:40:25;5.40;89.50
12223;DHT22;6174;49.058;8.524;2024-01-16T13:42:52;5.40;90.00
12223;DHT22;6174;49.058;8.524;2024-01-16T13:45:18;5.50;89.30
12223;DHT22;6174;49.058;8.524;2024-01-16T13:47:45;5.60;89.70
12223;DHT22;6174;49.058;8.524;2024-01-16T13:50:12;5.70;89.00
12223;DHT22;6174;49.058;8.524;2024-01-16T13:52:40;5.60;87.60
12223;DHT22;6174;49.058;8.524;2024-01-16T13:55:07;5.50;86.40
12223;DHT22;6174;49.058;8.524;2024-01-16T13:57:34;5.40;85.30
12223;DHT22;6174;49.058;8.524;2024-01-16T14:00:02;5.30;85.40
12223;DHT22;6174;49.058;8.524;2024-01-16T14:02:29;5.20;86.20
12223;DHT22;6174;49.058;8.524;2024-01-16T14:04:56;5.30;87.20
12223;DHT22;6174;49.058;8.524;2024-01-16T14:07:23;5.40;87.90
12223;DHT22;6174;49.058;8.524;2024-01-16T14:09:51;5.60;86.10
12223;DHT22;6174;49.058;8.524;2024-01-16T14:12:18;5.70;86.80
12223;DHT22;6174;49.058;8.524;2024-01-16T14:14:45;5.70;87.80
12223;DHT22;6174;49.058;8.524;2024-01-16T14:17:13;6.00;85.40
12223;DHT22;6174;49.058;8.524;2024-01-16T14:19:39;6.00;84.00
12223;DHT22;6174;49.058;8.524;2024-01-16T14:22:06;6.00;83.90
12223;DHT22;6174;49.058;8.524;2024-01-16T14:24:33;5.90;83.10
12223;DHT22;6174;49.058;8.524;2024-01-16T14:27:01;5.60;82.10
12223;DHT22;6174;49.058;8.524;2024-01-16T14:29:28;5.40;82.10
12223;DHT22;6174;49.058;8.524;2024-01-16T14:31:55;5.20;82.60
12223;DHT22;6174;49.058;8.524;2024-01-16T14:34:22;5.10;84.30
12223;DHT22;6174;49.058;8.524;2024-01-16T14:36:50;4.90;84.50
12223;DHT22;6174;49.058;8.524;2024-01-16T14:39:17;4.80;84.80
12223;DHT22;6174;49.058;8.524;2024-01-16T14:41:50;4.70;85.40
12223;DHT22;6174;49.058;8.524;2024-01-16T14:44:18;4.50;86.70
12223;DHT22;6174;49.058;8.524;2024-01-16T14:46:45;4.40;86.50
12223;DHT22;6174;49.058;8.524;2024-01-16T14:49:11;4.40;86.00
12223;DHT22;6174;49.058;8.524;2024-01-16T14:51:38;4.30;87.00
12223;DHT22;6174;49.058;8.524;2024-01-16T14:54:05;4.30;87.30
12223;DHT22;6174;49.058;8.524;2024-01-16T14:56:32;4.20;86.70
12223;DHT22;6174;49.058;8.524;2024-01-16T14:58:59;4.10;88.20
12223;DHT22;6174;49.058;8.524;2024-01-16T15:01:27;4.00;88.80
12223;DHT22;6174;49.058;8.524;2024-01-16T15:03:54;4.00;89.00
12223;DHT22;6174;49.058;8.524;2024-01-16T15:06:21;4.00;89.70
12223;DHT22;6174;49.058;8.524;2024-01-16T15:08:48;3.90;89.60
12223;DHT22;6174;49.058;8.524;2024-01-16T15:11:14;3.90;90.30
12223;DHT22;6174;49.058;8.524;2024-01-16T15:13:42;3.80;90.10
12223;DHT22;6174;49.058;8.524;2024-01-16T15:16:10;3.60;90.80
12223;DHT22;6174;49.058;8.524;2024-01-16T15:18:38;3.60;91.20
12223;DHT22;6174;49.058;8.524;2024-01-16T15:21:05;3.60;90.70
12223;DHT22;6174;49.058;8.524;2024-01-16T15:23:32;3.60;90.80
12223;DHT22;6174;49.058;8.524;2024-01-16T15:25:58;3.50;91.30
12223;DHT22;6174;49.058;8.524;2024-01-16T15:28:30;3.40;91.40
12223;DHT22;6174;49.058;8.524;2024-01-16T15:30:57;3.40;91.40
12223;DHT22;6174;49.058;8.524;2024-01-16T15:33:23;3.40;91.70
12223;DHT22;6174;49.058;8.524;2024-01-16T15:35:52;3.30;91.90
12223;DHT22;6174;49.058;8.524;2024-01-16T15:38:18;3.30;91.90
12223;DHT22;6174;49.058;8.524;2024-01-16T15:40:45;3.20;92.40
12223;DHT22;6174;49.058;8.524;2024-01-16T15:43:12;3.20;92.40
12223;DHT22;6174;49.058;8.524;2024-01-16T15:45:38;3.00;92.60
12223;DHT22;6174;49.058;8.524;2024-01-16T15:48:06;2.80;93.10
12223;DHT22;6174;49.058;8.524;2024-01-16T15:50:33;2.60;93.40
12223;DHT22;6174;49.058;8.524;2024-01-16T15:53:01;2.50;93.60
12223;DHT22;6174;49.058;8.524;2024-01-16T15:55:28;2.40;93.70
12223;DHT22;6174;49.058;8.524;2024-01-16T15:57:55;2.30;94.00
12223;DHT22;6174;49.058;8.524;2024-01-16T16:00:21;2.20;94.40
12223;DHT22;6174;49.058;8.524;2024-01-16T16:02:48;1.90;95.00
12223;DHT22;6174;49.058;8.524;2024-01-16T16:05:15;1.70;95.30
12223;DHT22;6174;49.058;8.524;2024-01-16T16:07:42;1.50;95.70
12223;DHT22;6174;49.058;8.524;2024-01-16T16:10:10;1.50;95.90
12223;DHT22;6174;49.058;8.524;2024-01-16T16:12:37;1.50;96.20
12223;DHT22;6174;49.058;8.524;2024-01-16T16:15:04;1.30;96.80
12223;DHT22;6174;49.058;8.524;2024-01-16T16:17:31;1.20;97.10
12223;DHT22;6174;49.058;8.524;2024-01-16T16:19:58;1.30;97.10
12223;DHT22;6174;49.058;8.524;2024-01-16T16:22:25;1.30;97.40
12223;DHT22;6174;49.058;8.524;2024-01-16T16:24:51;1.20;97.50
12223;DHT22;6174;49.058;8.524;2024-01-16T16:27:25;1.30;97.60
12223;DHT22;6174;49.058;8.524;2024-01-16T16:29:52;1.20;97.60
12223;DHT22;6174;49.058;8.524;2024-01-16T16:32:20;1.20;97.80
12223;DHT22;6174;49.058;8.524;2024-01-16T16:34:47;1.20;97.90
12223;DHT22;6174;49.058;8.524;2024-01-16T16:37:14;1.00;98.20
12223;DHT22;6174;49.058;8.524;2024-01-16T16:39:41;1.10;98.80
12223;DHT22;6174;49.058;8.524;2024-01-16T16:42:08;0.70;99.10
12223;DHT22;6174;49.058;8.524;2024-01-16T16:44:36;0.70;99.50
12223;DHT22;6174;49.058;8.524;2024-01-16T16:47:06;0.70;99.70
12223;DHT22;6174;49.058;8.524;2024-01-16T16:50:08;0.70;99.80
12223;DHT22;6174;49.058;8.524;2024-01-16T16:52:36;0.80;99.90
12223;DHT22;6174;49.058;8.524;2024-01-16T16:55:05;0.70;99.80
12223;DHT22;6174;49.058;8.524;2024-01-16T16:57:32;0.80;99.70
12223;DHT22;6174;49.058;8.524;2024-01-16T17:00:00;1.10;99.70
12223;DHT22;6174;49.058;8.524;2024-01-16T17:02:27;0.60;99.60
12223;DHT22;6174;49.058;8.524;2024-01-16T17:04:54;0.70;99.70
12223;DHT22;6174;49.058;8.524;2024-01-16T17:07:21;0.60;99.70
12223;DHT22;6174;49.058;8.524;2024-01-16T17:09:47;0.50;99.90
12223;DHT22;6174;49.058;8.524;2024-01-16T17:12:14;0.50;99.90
12223;DHT22;6174;49.058;8.524;2024-01-16T17:14:41;0.40;99.90
12223;DHT22;6174;49.058;8.524;2024-01-16T17:17:10;0.50;99.90
12223;DHT22;6174;49.058;8.524;2024-01-16T17:19:37;0.40;99.90
12223;DHT22;6174;49.058;8.524;2024-01-16T17:22:04;0.40;99.90
12223;DHT22;6174;49.058;8.524;2024-01-16T17:24:31;0.40;99.90
12223;DHT22;6174;49.058;8.524;2024-01-16T17:26:58;0.30;99.90
12223;DHT22;6174;49.058;8.524;2024-01-16T17:29:25;0.20;99.90
12223;DHT22;6174;49.058;8.524;2024-01-16T17:31:52;-0.20;99.90
12223;DHT22;6174;49.058;8.524;2024-01-16T17:34:22;0.20;99.90
12223;DHT22;6174;49.058;8.524;2024-01-16T17:36:49;0.00;99.90
12223;DHT22;6174;49.058;8.524;2024-01-16T17:39:16;-0.40;99.90
12223;DHT22;6174;49.058;8.524;2024-01-16T17:41:47;-0.40;99.90
12223;DHT22;6174;49.058;8.524;2024-01-16T17:44:14;-0.50;99.90
12223;DHT22;6174;49.058;8.524;2024-01-16T17:46:42;-0.60;99.90
12223;DHT22;6174;49.058;8.524;2024-01-16T17:49:10;-0.60;99.90
12223;DHT22;6174;49.058;8.524;2024-01-16T17:51:38;-0.60;99.90
12223;DHT22;6174;49.058;8.524;2024-01-16T17:54:05;-0.60;99.90
12223;DHT22;6174;49.058;8.524;2024-01-16T17:56:31;-0.60;99.90
12223;DHT22;6174;49.058;8.524;2024-01-16T17:58:58;-0.60;99.90
12223;DHT22;6174;49.058;8.524;2024-01-16T18:01:25;-0.60;99.90
12223;DHT22;6174;49.058;8.524;2024-01-16T18:03:52;-0.50;99.90
12223;DHT22;6174;49.058;8.524;2024-01-16T18:06:22;-0.50;99.90
12223;DHT22;6174;49.058;8.524;2024-01-16T18:08:50;-0.60;99.90
12223;DHT22;6174;49.058;8.524;2024-01-16T18:11:17;-0.80;99.90
12223;DHT22;6174;49.058;8.524;2024-01-16T18:13:44;-0.90;99.90
12223;DHT22;6174;49.058;8.524;2024-01-16T18:16:11;-1.00;99.90
12223;DHT22;6174;49.058;8.524;2024-01-16T18:18:39;-1.00;99.90
12223;DHT22;6174;49.058;8.524;2024-01-16T18:21:06;-1.00;99.90
12223;DHT22;6174;49.058;8.524;2024-01-16T18:23:32;-1.00;99.90
12223;DHT22;6174;49.058;8.524;2024-01-16T18:26:01;-1.00;99.90
12223;DHT22;6174;49.058;8.524;2024-01-16T18:28:29;-1.00;99.90
12223;DHT22;6174;49.058;8.524;2024-01-16T18:30:56;-1.00;99.90
12223;DHT22;6174;49.058;8.524;2024-01-16T18:33:23;-0.90;99.90
12223;DHT22;6174;49.058;8.524;2024-01-16T18:35:49;-0.90;99.90
12223;DHT22;6174;49.058;8.524;2024-01-16T18:38:22;-0.90;99.90
12223;DHT22;6174;49.058;8.524;2024-01-16T18:40:52;-0.80;99.90
12223;DHT22;6174;49.058;8.524;2024-01-16T18:43:22;-0.90;99.90
12223;DHT22;6174;49.058;8.524;2024-01-16T18:45:49;-0.90;99.90
12223;DHT22;6174;49.058;8.524;2024-01-16T18:48:17;-1.00;99.90
12223;DHT22;6174;49.058;8.524;2024-01-16T18:50:44;-0.90;99.90
12223;DHT22;6174;49.058;8.524;2024-01-16T18:53:11;-0.80;99.90
12223;DHT22;6174;49.058;8.524;2024-01-16T18:55:39;-0.60;99.90
12223;DHT22;6174;49.058;8.524;2024-01-16T18:58:06;-0.70;99.90
12223;DHT22;6174;49.058;8.524;2024-01-16T19:00:34;-0.80;99.90
12223;DHT22;6174;49.058;8.524;2024-01-16T19:03:05;-0.70;99.90
12223;DHT22;6174;49.058;8.524;2024-01-16T19:05:34;0.50;99.90
12223;DHT22;6174;49.058;8.524;2024-01-16T19:08:01;0.00;99.90
12223;DHT22;6174;49.058;8.524;2024-01-16T19:10:29;-0.60;99.90
12223;DHT22;6174;49.058;8.524;2024-01-16T19:12:56;-0.50;99.90
12223;DHT22;6174;49.058;8.524;2024-01-16T19:15:23;-0.60;99.90
12223;DHT22;6174;49.058;8.524;2024-01-16T19:17:51;-0.60;99.90
12223;DHT22;6174;49.058;8.524;2024-01-16T19:20:19;0.70;99.90
12223;DHT22;6174;49.058;8.524;2024-01-16T19:22:47;-0.80;99.90
12223;DHT22;6174;49.058;8.524;2024-01-16T19:25:15;-0.80;99.90
12223;DHT22;6174;49.058;8.524;2024-01-16T19:27:41;-0.60;99.90
12223;DHT22;6174;49.058;8.524;2024-01-16T19:30:10;-0.80;99.90
12223;DHT22;6174;49.058;8.524;2024-01-16T19:32:39;-0.70;99.90
12223;DHT22;6174;49.058;8.524;2024-01-16T19:35:08;-0.60;99.90
12223;DHT22;6174;49.058;8.524;2024-01-16T19:37:41;-0.70;99.90
12223;DHT22;6174;49.058;8.524;2024-01-16T19:40:09;-0.70;99.90
12223;DHT22;6174;49.058;8.524;2024-01-16T19:42:37;-0.70;99.90
12223;DHT22;6174;49.058;8.524;2024-01-16T19:45:05;-0.80;99.90
12223;DHT22;6174;49.058;8.524;2024-01-16T19:47:33;-0.90;99.90
12223;DHT22;6174;49.058;8.524;2024-01-16T19:50:00;-1.00;99.90
12223;DHT22;6174;49.058;8.524;2024-01-16T19:52:32;-1.10;99.90
12223;DHT22;6174;49.058;8.524;2024-01-16T19:54:59;-0.70;99.90
12223;DHT22;6174;49.058;8.524;2024-01-16T19:57:31;-0.50;99.90
12223;DHT22;6174;49.058;8.524;2024-01-16T19:59:58;-1.70;99.90
12223;DHT22;6174;49.058;8.524;2024-01-16T20:02:26;-1.80;99.90
12223;DHT22;6174;49.058;8.524;2024-01-16T20:04:53;-1.70;99.90
12223;DHT22;6174;49.058;8.524;2024-01-16T20:07:20;-1.60;99.90
12223;DHT22;6174;49.058;8.524;2024-01-16T20:09:48;-1.60;99.90
12223;DHT22;6174;49.058;8.524;2024-01-16T20:12:15;-1.70;99.90
12223;DHT22;6174;49.058;8.524;2024-01-16T20:14:44;-1.80;99.90
12223;DHT22;6174;49.058;8.524;2024-01-16T20:17:12;-1.80;99.90
12223;DHT22;6174;49.058;8.524;2024-01-16T20:19:40;-1.80;99.90
12223;DHT22;6174;49.058;8.524;2024-01-16T20:22:07;-1.90;99.90
12223;DHT22;6174;49.058;8.524;2024-01-16T20:24:37;-1.90;99.90
12223;DHT22;6174;49.058;8.524;2024-01-16T20:27:05;-1.90;99.90
12223;DHT22;6174;49.058;8.524;2024-01-16T20:29:32;-1.90;99.90
12223;DHT22;6174;49.058;8.524;2024-01-16T20:32:00;-2.00;99.90
12223;DHT22;6174;49.058;8.524;2024-01-16T20:34:31;-2.00;99.90
12223;DHT22;6174;49.058;8.524;2024-01-16T20:36:59;-2.00;99.90
12223;DHT22;6174;49.058;8.524;2024-01-16T20:39:27;-2.10;99.90
12223;DHT22;6174;49.058;8.524;2024-01-16T20:41:54;-2.10;99.90
12223;DHT22;6174;49.058;8.524;2024-01-16T20:44:22;-2.20;99.90
12223;DHT22;6174;49.058;8.524;2024-01-16T20:46:52;-2.10;99.90
12223;DHT22;6174;49.058;8.524;2024-01-16T20:49:18;-2.10;99.90
12223;DHT22;6174;49.058;8.524;2024-01-16T20:51:45;-2.00;99.90
12223;DHT22;6174;49.058;8.524;2024-01-16T20:54:12;-2.10;99.90
12223;DHT22;6174;49.058;8.524;2024-01-16T20:56:41;-1.80;99.90
12223;DHT22;6174;49.058;8.524;2024-01-16T20:59:08;-1.60;99.90
12223;DHT22;6174;49.058;8.524;2024-01-16T21:01:36;-1.30;99.90
12223;DHT22;6174;49.058;8.524;2024-01-16T21:04:03;-1.60;99.90
12223;DHT22;6174;49.058;8.524;2024-01-16T21:06:31;-1.30;99.90
12223;DHT22;6174;49.058;8.524;2024-01-16T21:08:58;-2.20;99.90
12223;DHT22;6174;49.058;8.524;2024-01-16T21:11:24;-2.10;99.90
12223;DHT22;6174;49.058;8.524;2024-01-16T21:13:51;-2.00;99.90
12223;DHT22;6174;49.058;8.524;2024-01-16T21:16:18;-2.30;99.90
12223;DHT22;6174;49.058;8.524;2024-01-16T21:18:46;-2.40;99.90
12223;DHT22;6174;49.058;8.524;2024-01-16T21:21:15;-2.60;99.90
12223;DHT22;6174;49.058;8.524;2024-01-16T21:23:42;-2.50;99.90
12223;DHT22;6174;49.058;8.524;2024-01-16T21:26:09;-2.40;99.90
12223;DHT22;6174;49.058;8.524;2024-01-16T21:28:36;-2.30;99.90
12223;DHT22;6174;49.058;8.524;2024-01-16T21:31:04;-2.30;99.90
12223;DHT22;6174;49.058;8.524;2024-01-16T21:33:31;-2.50;99.90
12223;DHT22;6174;49.058;8.524;2024-01-16T21:35:59;-2.60;99.90
12223;DHT22;6174;49.058;8.524;2024-01-16T21:38:26;-2.60;99.90
12223;DHT22;6174;49.058;8.524;2024-01-16T21:40:55;-2.60;99.90
12223;DHT22;6174;49.058;8.524;2024-01-16T21:43:22;-2.50;99.90
12223;DHT22;6174;49.058;8.524;2024-01-16T21:45:49;-2.50;99.90
12223;DHT22;6174;49.058;8.524;2024-01-16T21:48:15;-2.60;99.90
12223;DHT22;6174;49.058;8.524;2024-01-16T21:50:45;-2.70;99.90
12223;DHT22;6174;49.058;8.524;2024-01-16T21:53:16;-2.60;99.90
12223;DHT22;6174;49.058;8.524;2024-01-16T21:55:43;-1.90;99.90
12223;DHT22;6174;49.058;8.524;2024-01-16T21:58:10;-2.50;99.90
12223;DHT22;6174;49.058;8.524;2024-01-16T22:00:37;-2.30;99.90